Latest Weather Observations for Yarrawonga

IDV60801

Issued at 9:42 pm EST Monday 6 July 2020 (issued every 10 minutes, with the page automatically refreshed every 10 minutes)

About weather observations | Map of weather stations | Latest weather observations for VIC | Other Formats
Station Details ID: 081124 Name: YARRAWONGA Lat: -36.03 Lon: 146.03 Height: 128.9 m
Data from the previous 72 hours. | See also: Recent months at Yarrawonga
Date/Time
EST
Temp
°C
App
Temp
°C
Dew
Point
°C
Rel
Hum
%
Delta-T
°C
Wind Press
QNH
hPa
Press
MSL
hPa
Rain since
9am
mm
Dir  Spd
km/h
Gust
km/h
Spd
kts
Gust
kts
06/09:30pm 3.3 1.5 3.2 99 0.0 ESE 2 4 1 2 1030.5 1030.8 0.0
06/09:00pm 3.9 1.8 3.8 99 0.0 SW 4 4 2 2 1030.4 1030.7 0.0
06/08:30pm 5.5 3.3 5.4 99 0.0 WSW 6 7 3 4 1030.4 1030.7 0.0
06/08:00pm 5.4 4.3 5.3 99 0.0 CALM 0 0 0 0 1030.4 1030.7 0.0
06/07:30pm 6.5 4.3 6.4 99 0.0 SW 7 9 4 5 1030.1 1030.4 0.0
06/07:00pm 7.4 4.7 7.3 99 0.0 SW 11 13 6 7 1029.7 1030.0 0.0
06/06:30pm 8.0 5.0 7.9 99 0.0 SW 13 13 7 7 1029.5 1029.8 0.0
06/06:00pm 9.0 6.3 8.9 99 0.0 SW 13 17 7 9 1029.3 1029.6 0.0
06/05:30pm 10.8 7.9 9.6 92 0.6 SW 15 19 8 10 1029.1 1029.4 0.0
06/05:00pm 11.7 9.9 9.6 87 1.1 WSW 9 15 5 8 1029.0 1029.3 0.0
06/04:30pm 11.3 10.6 9.9 91 0.7 NE 4 6 2 3 1028.8 1029.1 0.0
06/04:00pm 12.6 11.7 9.2 80 1.7 NE 4 6 2 3 1028.7 1029.0 0.0
06/03:30pm 12.6 11.5 10.1 85 1.3 ENE 6 9 3 5 1028.7 1029.0 0.0
06/03:00pm 11.9 10.7 9.6 86 1.2 NE 6 9 3 5 1028.7 1029.0 0.0
06/02:30pm 12.2 11.9 10.1 87 1.1 E 2 6 1 3 1028.7 1029.0 0.0
06/02:00pm 13.2 11.1 8.1 71 2.5 SSW 9 17 5 9 1028.9 1029.2 0.0
06/01:30pm 12.4 10.1 9.1 80 1.7 SSW 11 17 6 9 1029.1 1029.4 0.0
06/01:00pm 11.8 10.1 9.7 87 1.1 SSW 9 15 5 8 1029.5 1029.8 0.0
06/12:30pm 10.4 9.4 10.2 99 0.1 SSW 6 11 3 6 1029.8 1030.1 0.0
06/12:00pm 9.3 7.8 9.3 100 0.0 S 7 13 4 7 1030.2 1030.5 0.0
06/11:30am 8.0 6.2 8.0 100 0.0 SSE 7 11 4 6 1030.3 1030.6 0.0
06/11:00am 7.3 5.9 7.3 100 0.0 S 4 6 2 3 1030.5 1030.8 0.0
06/10:30am 6.4 4.4 6.4 100 0.0 SSW 6 6 3 3 1030.7 1031.0 0.0
06/10:00am 5.8 4.1 5.8 100 0.0 S 4 7 2 4 1030.7 1031.0 0.0
06/09:30am 5.5 4.1 5.5 100 0.0 SE 2 4 1 2 1030.6 1030.9 0.0
06/09:00am 4.1 2.4 4.1 100 0.0 ESE 2 4 1 2 1030.5 1030.8 0.2
06/08:30am 3.2 1.0 3.2 100 0.0 E 4 6 2 3 1030.1 1030.4 0.2
06/08:00am 2.7 1.1 2.7 100 0.0 CALM 0 0 0 0 1029.8 1030.1 0.2
06/07:30am 1.3 -0.5 1.3 100 0.0 CALM 0 0 0 0 1029.7 1030.0 0.0
06/07:00am 0.7 -1.2 0.7 100 0.0 CALM 0 0 0 0 1029.5 1029.8 0.0
06/06:30am 0.5 -1.8 0.5 100 0.0 SW 2 4 1 2 1029.0 1029.3 0.0
06/06:00am 1.2 -1.7 1.2 100 0.0 WSW 6 6 3 3 1028.4 1028.7 0.0
06/05:30am 1.5 -1.0 1.5 100 0.0 SSW 4 6 2 3 1028.2 1028.5 0.0
06/05:00am 1.5 -0.3 1.5 100 0.0 CALM 0 0 0 0 1028.0 1028.3 0.0
06/04:30am 1.8 -1.0 1.8 100 0.0 SSW 6 6 3 3 1027.8 1028.1 0.0
06/04:00am 1.9 -1.5 1.9 100 0.0 SW 9 9 5 5 1027.7 1028.0 0.0
06/03:30am 2.8 0.1 2.8 100 0.0 SW 6 7 3 4 1027.8 1028.1 0.0
06/03:00am 2.2 -1.5 2.2 100 0.0 SW 11 11 6 6 1027.8 1028.1 0.0
06/02:30am 2.6 -0.3 2.6 100 0.0 WSW 7 9 4 5 1027.8 1028.1 0.0
06/02:00am 2.7 0.4 2.6 99 0.0 SW 4 6 2 3 1027.9 1028.2 0.0
06/01:30am 4.0 1.5 4.0 100 0.0 W 6 6 3 3 1027.9 1028.2 0.0
06/01:00am 3.7 1.0 3.7 100 0.0 WSW 7 9 4 5 1028.0 1028.3 0.0
06/12:30am 3.8 1.1 3.7 99 0.0 WSW 7 9 4 5 1028.0 1028.3 0.0
06/12:00am 4.7 2.4 4.6 99 0.0 W 6 9 3 5 1028.0 1028.3 0.0
 
Date/Time
EST
Temp
°C
App
Temp
°C
Dew
Point
°C
Rel
Hum
%
Delta-T
°C
Wind Press
QNH
hPa
Press
MSL
hPa
Rain since
9am
mm
Dir  Spd
km/h
Gust
km/h
Spd
kts
Gust
kts
05/11:30pm 4.4 1.4 4.3 99 0.0 WSW 9 13 5 7 1028.0 1028.3 0.0
05/11:00pm 4.8 1.1 4.7 99 0.0 WSW 13 15 7 8 1027.9 1028.2 0.0
05/10:30pm 5.5 2.4 5.4 99 0.0 WSW 11 13 6 7 1027.7 1028.0 0.0
05/10:00pm 6.0 3.0 5.9 99 0.0 WSW 11 13 6 7 1027.4 1027.7 0.0
05/09:30pm 6.2 2.8 6.1 99 0.0 WSW 13 17 7 9 1027.1 1027.4 0.0
05/09:00pm 6.4 2.7 6.3 99 0.0 SW 15 17 8 9 1026.9 1027.2 0.0
05/08:30pm 6.6 3.3 6.5 99 0.0 WSW 13 15 7 8 1026.9 1027.2 0.0
05/08:00pm 6.7 3.8 6.6 99 0.0 WSW 11 13 6 7 1026.7 1027.0 0.0
05/07:30pm 7.0 4.2 6.9 99 0.0 WSW 11 13 6 7 1026.6 1026.9 0.0
05/07:00pm 7.1 3.9 7.0 99 0.0 WSW 13 15 7 8 1026.3 1026.6 0.0
05/06:30pm 8.4 6.1 7.6 95 0.4 W 9 13 5 7 1026.1 1026.4 0.0
05/06:00pm 8.2 6.0 7.8 97 0.2 W 9 11 5 6 1025.8 1026.1 0.0
05/05:30pm 8.6 5.9 7.5 93 0.5 WSW 11 11 6 6 1025.5 1025.8 0.0
05/05:00pm 10.3 7.3 7.7 84 1.3 WSW 13 15 7 8 1025.3 1025.6 0.0
05/04:30pm 11.6 8.0 8.3 80 1.6 SW 17 22 9 12 1025.2 1025.5 0.0
05/04:00pm 12.1 8.1 8.4 78 1.8 SW 19 26 10 14 1025.2 1025.5 0.0
05/03:30pm 12.6 8.6 8.3 75 2.1 WSW 19 24 10 13 1025.3 1025.6 0.0
05/03:00pm 12.8 8.8 8.3 74 2.2 WSW 19 22 10 12 1025.3 1025.6 0.0
05/02:30pm 12.8 8.3 8.7 76 2.1 WSW 22 28 12 15 1025.3 1025.6 0.0
05/02:00pm 12.7 8.4 9.3 80 1.7 WSW 22 28 12 15 1025.3 1025.6 0.0
05/01:30pm 12.9 8.6 9.4 79 1.8 SW 22 28 12 15 1025.5 1025.8 0.0
05/01:00pm 12.3 7.9 9.0 80 1.7 SW 22 28 12 15 1025.8 1026.1 0.0
05/12:30pm 11.9 7.9 8.9 82 1.5 WSW 20 28 11 15 1026.3 1026.6 0.0
05/12:00pm 11.6 7.6 9.2 85 1.2 WSW 20 26 11 14 1026.5 1026.8 0.0
05/11:30am 12.2 7.8 10.3 88 1.0 WSW 24 30 13 16 1026.7 1027.0 0.0
05/11:00am 11.3 7.0 9.4 88 1.0 WSW 22 30 12 16 1027.0 1027.3 0.0
05/10:30am 10.8 6.6 9.9 94 0.5 WSW 22 30 12 16 1026.8 1027.1 0.0
05/10:00am 10.0 6.2 9.7 98 0.2 WSW 20 28 11 15 1026.7 1027.0 0.0
05/09:30am 8.8 5.3 8.7 99 0.0 WSW 17 20 9 11 1026.7 1027.0 0.0
05/09:00am 8.2 5.7 8.1 99 0.0 SSW 11 17 6 9 1026.6 1026.9 0.0
05/08:30am 7.2 4.4 7.1 99 0.0 SW 11 15 6 8 1026.1 1026.4 0.0
05/08:00am 6.3 1.8 6.3 100 0.0 WSW 19 24 10 13 1025.9 1026.2 0.0
05/07:30am 5.7 1.5 5.7 100 0.0 WSW 17 20 9 11 1025.7 1026.0 0.0
05/07:00am 5.9 1.4 5.9 100 0.0 WSW 19 22 10 12 1025.3 1025.6 0.0
05/06:30am 6.1 2.4 6.1 100 0.0 WSW 15 20 8 11 1024.9 1025.1 0.0
05/06:00am 6.1 2.7 6.1 100 0.0 WSW 13 15 7 8 1024.7 1024.9 0.0
05/05:30am 5.5 2.8 5.5 100 0.0 SW 9 11 5 6 1024.4 1024.6 0.0
05/05:00am 6.6 4.1 6.6 100 0.0 WSW 9 11 5 6 1024.4 1024.6 0.0
05/04:30am 6.3 4.7 6.3 100 0.0 SW 4 7 2 4 1024.2 1024.4 0.0
05/04:00am 7.2 4.1 7.2 100 0.0 W 13 19 7 10 1024.3 1024.5 0.0
05/03:30am 7.6 3.8 7.6 100 0.0 W 17 20 9 11 1024.2 1024.4 0.0
05/03:00am 8.3 6.2 8.3 100 0.0 W 9 13 5 7 1024.4 1024.6 0.0
05/02:30am 8.2 5.7 8.2 100 0.0 W 11 15 6 8 1024.5 1024.7 0.0
05/02:00am 8.3 5.4 8.3 100 0.0 W 13 17 7 9 1024.4 1024.6 0.0
05/01:30am 8.5 5.3 8.5 100 0.0 WSW 15 19 8 10 1024.5 1024.7 0.0
05/01:00am 8.1 5.2 8.1 100 0.0 W 13 17 7 9 1024.4 1024.6 0.0
05/12:30am 7.8 4.8 7.8 100 0.0 W 13 15 7 8 1024.4 1024.6 0.0
05/12:00am 8.6 5.8 8.6 100 0.0 W 13 17 7 9 1024.6 1024.8 0.0
 
Date/Time
EST
Temp
°C
App
Temp
°C
Dew
Point
°C
Rel
Hum
%
Delta-T
°C
Wind Press
QNH
hPa
Press
MSL
hPa
Rain since
9am
mm
Dir  Spd
km/h
Gust
km/h
Spd
kts
Gust
kts
04/11:30pm 9.3 6.7 9.2 99 0.0 WNW 13 19 7 10 1024.8 1025.0 0.0
04/11:00pm 9.3 6.7 9.2 99 0.0 W 13 19 7 10 1025.1 1025.4 0.0
04/10:30pm 9.1 6.8 9.0 99 0.0 W 11 17 6 9 1025.1 1025.4 0.0
04/10:00pm 9.1 6.4 9.0 99 0.0 W 13 17 7 9 1025.1 1025.4 0.0
04/09:30pm 9.6 6.7 9.5 99 0.1 W 15 22 8 12 1024.8 1025.0 0.0
04/09:00pm 9.5 6.9 9.4 99 0.0 W 13 19 7 10 1024.9 1025.1 0.0
04/08:30pm 9.9 6.6 9.6 98 0.2 WNW 17 24 9 13 1024.9 1025.1 0.0
04/08:00pm 9.6 7.0 9.5 99 0.0 WNW 13 22 7 12 1024.8 1025.0 0.0
04/07:30pm 9.3 6.7 9.2 99 0.0 WNW 13 20 7 11 1024.8 1025.0 0.0
04/07:00pm 9.1 6.4 9.0 99 0.0 WNW 13 19 7 10 1024.8 1025.0 0.0
04/06:30pm 9.1 6.4 9.0 99 0.0 W 13 19 7 10 1024.8 1025.0 0.0
04/06:00pm 9.3 5.9 9.0 98 0.1 W 17 20 9 11 1024.7 1024.9 0.0
04/05:30pm 9.7 6.7 9.1 96 0.3 W 15 24 8 13 1024.5 1024.7 0.0
04/05:00pm 9.9 7.6 9.0 94 0.4 W 11 15 6 8 1024.5 1024.7 0.0
04/04:30pm 10.2 6.7 8.8 91 0.7 W 17 24 9 13 1024.3 1024.5 0.0
04/04:00pm 10.4 7.0 9.0 91 0.7 W 17 28 9 15 1024.1 1024.3 0.0
04/03:30pm 10.5 7.0 8.8 89 0.8 W 17 22 9 12 1024.0 1024.2 0.0
04/03:00pm 10.4 6.4 8.3 87 1.0 W 19 24 10 13 1024.0 1024.2 0.0
04/02:30pm 10.3 7.0 8.1 86 1.1 W 15 19 8 10 1024.2 1024.4 0.0
04/02:00pm 10.3 6.0 7.7 84 1.3 WSW 20 26 11 14 1024.2 1024.4 0.0
04/01:30pm 10.0 6.2 7.4 84 1.2 W 17 22 9 12 1024.5 1024.7 0.0
04/01:00pm 9.9 5.8 7.7 86 1.1 WSW 19 26 10 14 1024.6 1024.8 0.0
04/12:30pm 9.8 5.4 7.4 85 1.1 WSW 20 26 11 14 1024.7 1024.9 0.0
04/12:00pm 9.6 5.2 7.4 86 1.0 WSW 20 26 11 14 1025.4 1025.7 0.0
04/11:30am 8.8 4.9 7.3 90 0.7 WSW 17 28 9 15 1025.8 1026.1 0.0
04/11:00am 7.9 4.0 7.1 95 0.4 WSW 17 22 9 12 1026.2 1026.5 0.0
04/10:30am 7.2 3.1 6.3 94 0.4 WSW 17 24 9 13 1026.2 1026.5 0.0
04/10:00am 5.8 2.0 5.7 99 0.0 WSW 15 20 8 11 1026.2 1026.5 0.0
04/09:30am 5.0 1.0 4.9 99 0.0 W 15 20 8 11 1025.8 1026.1 0.0
04/09:00am 3.8 -0.4 3.8 100 0.0 W 15 22 8 12 1025.5 1025.8 10.4
04/08:30am 2.8 -1.6 2.8 100 0.0 W 15 19 8 10 1025.4 1025.7 10.4
04/08:00am 2.3 -1.8 2.3 100 0.0 W 13 17 7 9 1025.0 1025.2 10.4
04/07:30am 1.9 -1.9 1.8 99 0.0 W 11 13 6 7 1024.7 1024.9 10.2
04/07:00am 2.4 -1.3 2.3 99 0.0 W 11 13 6 7 1024.3 1024.5 10.2
04/06:30am 2.7 -1.7 2.6 99 0.0 W 15 17 8 9 1024.1 1024.3 10.2
04/06:00am 2.9 -1.5 2.8 99 0.0 W 15 20 8 11 1023.5 1023.7 10.2
04/05:30am 2.9 -1.9 2.8 99 0.0 WSW 17 22 9 12 1023.3 1023.5 10.2
04/05:00am 3.0 -1.4 2.9 99 0.0 WSW 15 19 8 10 1023.3 1023.5 10.2
04/04:30am 3.3 -1.4 3.2 99 0.0 WSW 17 20 9 11 1023.2 1023.4 10.2
04/04:00am 3.5 -1.2 3.4 99 0.0 WSW 17 20 9 11 1023.2 1023.4 10.2
04/03:30am 3.4 -0.9 3.3 99 0.0 WSW 15 19 8 10 1023.1 1023.3 10.2
04/03:00am 3.6 -1.0 3.5 99 0.0 WSW 17 20 9 11 1023.1 1023.3 10.2
04/02:30am 3.7 -0.5 3.6 99 0.0 WSW 15 20 8 11 1022.8 1023.1 10.2
04/02:00am 3.8 -1.8 3.7 99 0.0 WSW 22 28 12 15 1022.7 1023.0 10.2
04/01:30am 4.0 -2.3 3.9 99 0.0 WSW 26 32 14 17 1022.6 1022.9 10.0
04/01:00am 4.3 -0.8 4.2 99 0.0 WSW 20 32 11 17 1022.1 1022.4 10.0
04/12:30am 4.1 -0.1 4.0 99 0.0 WSW 15 19 8 10 1022.0 1022.3 10.0
04/12:00am 4.4 -1.4 4.3 99 0.0 WSW 24 32 13 17 1022.0 1022.3 10.0
 
Date/Time
EST
Temp
°C
App
Temp
°C
Dew
Point
°C
Rel
Hum
%
Delta-T
°C
Wind Press
QNH
hPa
Press
MSL
hPa
Rain since
9am
mm
Dir  Spd
km/h
Gust
km/h
Spd
kts
Gust
kts
03/11:30pm 4.7 -0.3 4.6 99 0.0 WSW 20 28 11 15 1021.5 1021.8 10.0
03/11:00pm 5.1 -0.6 5.0 99 0.0 SW 24 30 13 16 1021.2 1021.5 10.0
03/10:30pm 5.3 -1.1 5.2 99 0.0 WSW 28 37 15 20 1020.8 1021.1 10.0
03/10:00pm 5.4 -0.2 5.3 99 0.0 SW 24 30 13 16 1020.4 1020.7 10.0

Other formats

Comma delimited format used in spreadsheet applications
http://www.bom.gov.au/fwo/IDV60801/IDV60801.94862.axf

JavaScript Object Notation format (JSON) in row-major order
http://www.bom.gov.au/fwo/IDV60801/IDV60801.94862.json

Data quality

Most of these data are generated automatically and are frequently updated. Quality checks on data are not normally performed. It is possible for incorrect values to appear. Refer to information at About Latest Weather Observations and please check the disclaimer before using these data.